createdAt,value
2022-12-03T00:00:45.963Z,16.07
2022-12-03T00:03:12.918Z,16.47
2022-12-03T00:05:48.329Z,17.60
2022-12-03T00:08:16.011Z,18.73
2022-12-03T00:10:43.011Z,16.73
2022-12-03T00:13:10.183Z,17.93
2022-12-03T00:15:37.126Z,17.60
2022-12-03T00:18:04.111Z,16.93
2022-12-03T00:20:31.009Z,18.87
2022-12-03T00:22:57.931Z,17.43
2022-12-03T00:25:24.815Z,16.73
2022-12-03T00:27:51.706Z,16.50
2022-12-03T00:30:18.765Z,17.20
2022-12-03T00:32:45.649Z,17.33
2022-12-03T00:35:12.543Z,16.30
2022-12-03T00:37:39.451Z,16.60
2022-12-03T00:40:07.391Z,17.13
2022-12-03T00:42:34.368Z,15.80
2022-12-03T00:45:01.261Z,17.50
2022-12-03T00:47:28.113Z,16.33
2022-12-03T00:49:55.008Z,15.63
2022-12-03T00:52:21.949Z,19.03
2022-12-03T00:54:49.161Z,15.17
2022-12-03T00:57:16.290Z,18.00
2022-12-03T00:59:43.172Z,16.60
2022-12-03T01:02:10.421Z,16.47
2022-12-03T01:04:37.587Z,17.50
2022-12-03T01:07:05.088Z,16.57
2022-12-03T01:09:32.169Z,16.83
2022-12-03T01:11:59.292Z,18.30
2022-12-03T01:14:26.244Z,15.43
2022-12-03T01:16:53.152Z,17.33
2022-12-03T01:19:20.311Z,17.77
2022-12-03T01:21:50.354Z,15.03
2022-12-03T01:24:18.763Z,15.50
2022-12-03T01:26:45.765Z,16.23
2022-12-03T01:29:12.866Z,16.53
2022-12-03T01:31:58.112Z,16.30
2022-12-03T01:34:25.071Z,15.77
2022-12-03T01:36:52.604Z,17.50
2022-12-03T01:39:20.048Z,17.57
2022-12-03T01:41:49.124Z,16.60
2022-12-03T01:44:31.200Z,17.43
2022-12-03T01:47:01.998Z,16.17
2022-12-03T01:49:43.637Z,16.97
2022-12-03T01:52:18.153Z,16.30
2022-12-03T01:54:50.799Z,17.93
2022-12-03T01:57:43.887Z,18.03
2022-12-03T02:00:20.956Z,15.63
2022-12-03T02:02:52.936Z,18.00
2022-12-03T02:05:24.646Z,16.60
2022-12-03T02:07:53.753Z,17.93
2022-12-03T02:10:27.254Z,17.03
2022-12-03T02:13:06.557Z,16.77
2022-12-03T02:15:34.029Z,16.23
2022-12-03T02:18:01.326Z,16.63
2022-12-03T02:20:28.274Z,16.90
2022-12-03T02:23:13.243Z,15.87
2022-12-03T02:25:40.257Z,17.00
2022-12-03T02:28:09.166Z,17.50
2022-12-03T02:30:36.765Z,16.40
2022-12-03T02:33:04.167Z,16.80
2022-12-03T02:35:35.162Z,15.93
2022-12-03T02:38:20.187Z,16.63
2022-12-03T02:40:51.375Z,15.47
2022-12-03T02:43:20.049Z,16.77
2022-12-03T02:45:51.385Z,15.40
2022-12-03T02:48:24.354Z,15.90
2022-12-03T02:50:55.465Z,16.00
2022-12-03T02:53:36.556Z,15.17
2022-12-03T02:56:04.556Z,17.20
2022-12-03T02:58:33.071Z,14.43
2022-12-03T03:01:02.174Z,15.03
2022-12-03T03:03:30.542Z,16.70
2022-12-03T03:05:59.136Z,15.20
2022-12-03T03:08:26.829Z,16.20
2022-12-03T03:10:54.572Z,16.33
2022-12-03T03:13:21.850Z,16.63
2022-12-03T03:15:48.910Z,15.33
2022-12-03T03:18:16.743Z,14.07
2022-12-03T03:20:44.845Z,15.97
2022-12-03T03:23:11.639Z,15.53
2022-12-03T03:25:41.217Z,15.10
2022-12-03T03:28:08.197Z,13.57
2022-12-03T03:30:36.290Z,15.43
2022-12-03T03:33:03.443Z,15.03
2022-12-03T03:35:30.530Z,13.80
2022-12-03T03:37:58.728Z,14.90
2022-12-03T03:40:26.314Z,15.33
2022-12-03T03:42:56.076Z,13.97
2022-12-03T03:45:28.776Z,14.47
2022-12-03T03:47:58.251Z,14.27
2022-12-03T03:50:27.102Z,15.87
2022-12-03T03:52:54.710Z,15.03
2022-12-03T03:55:21.722Z,14.70
2022-12-03T03:57:49.076Z,15.70
2022-12-03T04:00:16.945Z,15.77
2022-12-03T04:02:44.004Z,14.87
2022-12-03T04:05:18.563Z,14.97
2022-12-03T04:07:45.584Z,13.63
2022-12-03T04:10:33.169Z,15.90
2022-12-03T04:13:00.979Z,15.30
2022-12-03T04:15:28.289Z,16.33
2022-12-03T04:18:14.157Z,16.73
2022-12-03T04:20:42.191Z,15.33
2022-12-03T04:23:09.193Z,14.67
2022-12-03T04:25:55.054Z,14.43
2022-12-03T04:28:40.475Z,14.90
2022-12-03T04:31:26.308Z,13.93
2022-12-03T04:34:12.307Z,17.03
2022-12-03T04:36:39.462Z,15.23
2022-12-03T04:39:06.370Z,14.30
2022-12-03T04:41:33.281Z,17.57
2022-12-03T04:44:18.885Z,20.23
2022-12-03T04:46:45.843Z,19.13
2022-12-03T04:49:13.084Z,16.33
2022-12-03T04:51:39.969Z,15.20
2022-12-03T04:54:06.887Z,15.70
2022-12-03T04:56:33.816Z,17.43
2022-12-03T04:59:00.801Z,16.63
2022-12-03T05:01:27.855Z,15.03
2022-12-03T05:03:54.769Z,16.63
2022-12-03T05:06:22.381Z,14.50
2022-12-03T05:08:49.252Z,15.53
2022-12-03T05:11:16.111Z,15.37
2022-12-03T05:13:43.267Z,15.03
2022-12-03T05:16:10.951Z,15.87
2022-12-03T05:18:38.076Z,18.43
2022-12-03T05:21:05.062Z,16.60
2022-12-03T05:23:32.384Z,18.03
2022-12-03T05:25:59.313Z,18.13
2022-12-03T05:28:26.283Z,16.93
2022-12-03T05:30:53.215Z,16.87
2022-12-03T05:33:20.621Z,16.13
2022-12-03T05:35:47.826Z,15.93
2022-12-03T05:38:14.759Z,16.13
2022-12-03T05:40:41.819Z,15.23
2022-12-03T05:43:08.715Z,16.73
2022-12-03T05:45:44.253Z,16.57
2022-12-03T05:48:15.002Z,16.53
2022-12-03T05:50:44.679Z,17.70
2022-12-03T05:53:15.732Z,15.00
2022-12-03T05:55:42.798Z,15.27
2022-12-03T05:58:09.947Z,14.73
2022-12-03T06:00:42.922Z,15.47
2022-12-03T06:03:11.011Z,16.43
2022-12-03T06:05:38.195Z,15.97
2022-12-03T06:08:05.174Z,15.20
2022-12-03T06:10:32.586Z,15.50
2022-12-03T06:12:59.644Z,15.87
2022-12-03T06:15:26.540Z,17.23
2022-12-03T06:17:53.486Z,15.23
2022-12-03T06:20:21.524Z,14.20
2022-12-03T06:22:48.846Z,13.87
2022-12-03T06:25:16.373Z,13.97
2022-12-03T06:27:43.557Z,16.53
2022-12-03T06:30:13.828Z,14.13
2022-12-03T06:32:41.059Z,15.10
2022-12-03T06:35:08.472Z,16.07
2022-12-03T06:37:35.387Z,15.87
2022-12-03T06:40:02.319Z,20.07
2022-12-03T06:42:29.189Z,23.10
2022-12-03T06:44:56.349Z,27.70
2022-12-03T06:47:23.544Z,26.03
2022-12-03T06:49:50.453Z,19.43
2022-12-03T06:52:17.364Z,15.43
2022-12-03T06:54:44.397Z,15.83
2022-12-03T06:57:11.319Z,16.90
2022-12-03T06:59:38.202Z,17.37
2022-12-03T07:02:05.674Z,19.00
2022-12-03T07:04:32.612Z,15.90
2022-12-03T07:06:59.514Z,16.40
2022-12-03T07:09:26.411Z,17.00
2022-12-03T07:11:53.310Z,16.23
2022-12-03T07:14:20.303Z,15.60
2022-12-03T07:16:47.632Z,15.70
2022-12-03T07:19:15.273Z,18.13
2022-12-03T07:21:42.467Z,15.63
2022-12-03T07:24:09.445Z,15.77
2022-12-03T07:26:36.366Z,16.97
2022-12-03T07:29:03.646Z,18.23
2022-12-03T07:31:30.586Z,15.97
2022-12-03T07:33:57.607Z,15.97
2022-12-03T07:36:24.488Z,16.30
2022-12-03T07:38:52.033Z,14.70
2022-12-03T07:41:19.023Z,14.57
2022-12-03T07:43:45.992Z,15.53
2022-12-03T07:46:12.995Z,15.90
2022-12-03T07:48:39.983Z,14.20
2022-12-03T07:51:06.974Z,15.03
2022-12-03T07:53:36.079Z,15.13
2022-12-03T07:56:05.005Z,15.87
2022-12-03T07:58:32.022Z,16.80
2022-12-03T08:00:59.013Z,15.80
2022-12-03T08:03:25.928Z,15.77
2022-12-03T08:05:52.829Z,16.77
2022-12-03T08:08:19.798Z,15.87
2022-12-03T08:10:46.754Z,16.70
2022-12-03T08:13:15.972Z,17.07
2022-12-03T08:15:43.941Z,15.87
2022-12-03T08:18:20.737Z,16.13
2022-12-03T08:21:02.788Z,14.77
2022-12-03T08:23:29.728Z,14.20
2022-12-03T08:26:02.018Z,16.03
2022-12-03T08:28:29.177Z,16.50
2022-12-03T08:31:26.853Z,15.47
2022-12-03T08:34:17.956Z,16.50
2022-12-03T08:36:46.340Z,18.07
2022-12-03T08:39:45.007Z,16.33
2022-12-03T08:42:41.939Z,15.47
2022-12-03T08:45:43.199Z,16.13
2022-12-03T08:48:34.717Z,14.33
2022-12-03T08:51:22.344Z,13.57
2022-12-03T08:53:56.696Z,15.20
2022-12-03T08:56:30.519Z,15.50
2022-12-03T08:59:31.782Z,15.63
2022-12-03T09:01:59.693Z,15.43
2022-12-03T09:04:46.750Z,19.70
2022-12-03T09:07:13.649Z,17.23
2022-12-03T09:09:40.578Z,17.40
2022-12-03T09:12:07.585Z,15.87
2022-12-03T09:14:34.524Z,16.13
2022-12-03T09:17:01.524Z,15.47
2022-12-03T09:19:31.217Z,15.33
2022-12-03T09:21:58.382Z,16.27
2022-12-03T09:24:25.356Z,18.17
2022-12-03T09:26:52.370Z,19.53
2022-12-03T09:29:19.453Z,16.07
2022-12-03T09:31:46.444Z,15.33
2022-12-03T09:34:13.401Z,14.63
2022-12-03T09:36:40.662Z,15.10
2022-12-03T09:39:07.644Z,15.77
2022-12-03T09:41:34.590Z,16.90
2022-12-03T09:44:04.859Z,15.87
2022-12-03T09:46:34.817Z,17.13
2022-12-03T09:49:03.100Z,16.17
2022-12-03T09:51:34.941Z,15.57
2022-12-03T09:54:07.102Z,15.07
2022-12-03T09:56:37.720Z,16.07
2022-12-03T09:59:14.255Z,16.00
2022-12-03T10:01:41.540Z,15.57
2022-12-03T10:04:08.904Z,15.50
2022-12-03T10:06:38.781Z,15.43
2022-12-03T10:09:11.783Z,16.00
2022-12-03T10:11:39.058Z,16.30
2022-12-03T10:14:06.481Z,16.20
2022-12-03T10:16:36.022Z,17.13
2022-12-03T10:19:03.035Z,17.67
2022-12-03T10:21:36.904Z,19.27
2022-12-03T10:24:32.950Z,17.40
2022-12-03T10:27:29.641Z,21.23
2022-12-03T10:30:01.686Z,20.17
2022-12-03T10:32:43.878Z,20.47
2022-12-03T10:35:23.729Z,19.83
2022-12-03T10:38:06.338Z,20.30
2022-12-03T10:40:39.408Z,22.30
2022-12-03T10:43:14.869Z,19.40
2022-12-03T10:45:43.006Z,18.53
2022-12-03T10:48:27.197Z,20.77
2022-12-03T10:51:07.092Z,20.93
2022-12-03T10:53:36.724Z,19.83
2022-12-03T10:56:07.389Z,21.23
2022-12-03T10:58:36.904Z,20.97
2022-12-03T11:01:17.093Z,18.63
2022-12-03T11:03:45.103Z,22.10
2022-12-03T11:06:20.156Z,21.00
2022-12-03T11:08:56.510Z,20.83
2022-12-03T11:11:30.857Z,19.80
2022-12-03T11:14:01.253Z,19.23
2022-12-03T11:16:40.304Z,19.83
2022-12-03T11:19:13.161Z,19.93
2022-12-03T11:22:26.414Z,21.03
2022-12-03T11:25:24.423Z,20.70
2022-12-03T11:28:13.132Z,20.47
2022-12-03T11:31:04.474Z,21.00
2022-12-03T11:33:38.509Z,23.27
2022-12-03T11:36:05.423Z,19.13
2022-12-03T11:38:38.286Z,20.27
2022-12-03T11:41:29.345Z,19.37
2022-12-03T11:44:01.904Z,19.13
2022-12-03T11:46:36.400Z,18.27
2022-12-03T11:49:22.335Z,18.67
2022-12-03T11:51:49.813Z,20.27
2022-12-03T11:54:19.408Z,18.03
2022-12-03T11:56:51.570Z,18.63
2022-12-03T11:59:19.281Z,18.57
2022-12-03T12:01:46.908Z,18.50
2022-12-03T12:04:43.086Z,19.87
2022-12-03T12:07:09.981Z,21.67
2022-12-03T12:09:54.698Z,23.50
2022-12-03T12:12:31.212Z,20.47
2022-12-03T12:14:59.193Z,21.87
2022-12-03T12:17:36.853Z,22.80
2022-12-03T12:20:27.112Z,21.60
2022-12-03T12:22:55.506Z,20.87
2022-12-03T12:25:41.358Z,19.50
2022-12-03T12:28:08.831Z,20.13
2022-12-03T12:30:36.898Z,18.30
2022-12-03T12:33:23.510Z,19.20
2022-12-03T12:35:51.344Z,19.00
2022-12-03T12:38:20.918Z,19.33
2022-12-03T12:40:50.507Z,21.20
2022-12-03T12:43:26.548Z,22.57
2022-12-03T12:45:56.943Z,23.83
2022-12-03T12:48:36.577Z,22.30
2022-12-03T12:51:16.901Z,21.30
2022-12-03T12:53:43.776Z,20.13
2022-12-03T12:56:19.509Z,20.93
2022-12-03T12:58:46.736Z,21.10
2022-12-03T13:01:29.531Z,22.57
2022-12-03T13:03:57.472Z,23.63
2022-12-03T13:06:28.173Z,26.03
2022-12-03T13:08:55.503Z,22.50
2022-12-03T13:11:25.319Z,20.10
2022-12-03T13:13:52.596Z,19.87
2022-12-03T13:16:28.849Z,20.70
2022-12-03T13:19:01.071Z,23.83
2022-12-03T13:21:44.249Z,20.80
2022-12-03T13:24:37.249Z,21.53
2022-12-03T13:27:23.122Z,21.50
2022-12-03T13:30:09.666Z,21.07
2022-12-03T13:32:37.911Z,23.43
2022-12-03T13:35:17.541Z,23.63
2022-12-03T13:37:44.895Z,22.90
2022-12-03T13:40:26.641Z,25.53
2022-12-03T13:42:54.354Z,24.57
2022-12-03T13:45:28.162Z,23.57
2022-12-03T13:48:01.459Z,21.40
2022-12-03T13:50:41.799Z,22.47
2022-12-03T13:53:11.577Z,21.20
2022-12-03T13:55:43.836Z,22.17
2022-12-03T13:58:10.722Z,21.83
2022-12-03T14:00:37.767Z,20.73
2022-12-03T14:03:05.105Z,22.40
2022-12-03T14:05:32.127Z,36.80
2022-12-03T14:08:02.028Z,39.43
2022-12-03T14:10:29.786Z,29.67
2022-12-03T14:12:57.386Z,26.47
2022-12-03T14:15:26.338Z,23.77
2022-12-03T14:17:53.336Z,24.03
2022-12-03T14:20:20.537Z,24.23
2022-12-03T14:22:47.455Z,23.00
2022-12-03T14:25:15.451Z,21.50
2022-12-03T14:27:42.476Z,22.90
2022-12-03T14:30:10.261Z,23.90
2022-12-03T14:32:37.160Z,22.13
2022-12-03T14:35:09.717Z,23.07
2022-12-03T14:37:37.171Z,23.50
2022-12-03T14:40:07.065Z,22.73
2022-12-03T14:42:33.941Z,26.80
2022-12-03T14:45:00.869Z,27.67
2022-12-03T14:47:28.023Z,28.53
2022-12-03T14:49:54.980Z,28.50
2022-12-03T14:52:21.997Z,25.47
2022-12-03T14:54:48.997Z,26.53
2022-12-03T14:57:16.551Z,27.23
2022-12-03T14:59:44.989Z,27.30
2022-12-03T15:02:12.787Z,27.77
2022-12-03T15:04:40.885Z,28.03
2022-12-03T15:07:08.338Z,29.77
2022-12-03T15:09:35.296Z,31.67
2022-12-03T15:12:03.662Z,30.83
2022-12-03T15:14:30.584Z,29.63
2022-12-03T15:16:57.788Z,30.73
2022-12-03T15:19:24.805Z,28.37
2022-12-03T15:21:51.689Z,30.83
2022-12-03T15:24:18.565Z,30.50
2022-12-03T15:26:45.477Z,29.60
2022-12-03T15:29:12.429Z,31.20
2022-12-03T15:31:39.425Z,33.00
2022-12-03T15:34:06.373Z,32.77
2022-12-03T15:36:33.262Z,32.80
2022-12-03T15:39:00.210Z,30.67
2022-12-03T15:41:29.874Z,31.87
2022-12-03T15:43:59.959Z,42.10
2022-12-03T15:46:27.997Z,40.90
2022-12-03T15:48:55.804Z,33.10
2022-12-03T15:51:23.433Z,31.73
2022-12-03T15:53:50.672Z,29.83
2022-12-03T15:56:17.562Z,31.03
2022-12-03T15:58:44.603Z,31.67
2022-12-03T16:01:13.704Z,30.43
2022-12-03T16:03:41.791Z,28.07
2022-12-03T16:06:09.113Z,26.17
2022-12-03T16:08:36.115Z,28.23
2022-12-03T16:11:03.988Z,27.73
2022-12-03T16:13:31.326Z,29.47
2022-12-03T16:15:58.315Z,28.77
2022-12-03T16:18:25.304Z,29.67
2022-12-03T16:20:52.392Z,27.90
2022-12-03T16:23:19.307Z,28.03
2022-12-03T16:25:46.253Z,28.43
2022-12-03T16:28:13.182Z,29.23
2022-12-03T16:30:40.165Z,30.63
2022-12-03T16:33:07.086Z,32.40
2022-12-03T16:35:34.017Z,30.00
2022-12-03T16:38:01.096Z,29.27
2022-12-03T16:40:27.996Z,29.03
2022-12-03T16:42:56.645Z,27.77
2022-12-03T16:45:29.265Z,28.30
2022-12-03T16:47:56.141Z,28.07
2022-12-03T16:50:29.495Z,27.47
2022-12-03T16:52:57.825Z,29.47
2022-12-03T16:55:25.072Z,26.83
2022-12-03T16:57:52.008Z,28.63
2022-12-03T17:00:21.745Z,26.90
2022-12-03T17:02:48.936Z,26.93
2022-12-03T17:05:15.943Z,28.97
2022-12-03T17:07:42.995Z,30.97
2022-12-03T17:10:10.592Z,27.50
2022-12-03T17:13:07.820Z,29.43
2022-12-03T17:15:24.455Z,29.40
2022-12-03T17:17:51.352Z,31.53
2022-12-03T17:20:18.640Z,28.17
2022-12-03T17:22:45.507Z,32.83
2022-12-03T17:25:12.744Z,32.10
2022-12-03T17:27:44.989Z,29.47
2022-12-03T17:30:13.491Z,35.93
2022-12-03T17:32:40.502Z,37.23
2022-12-03T17:35:08.386Z,39.00
2022-12-03T17:37:36.140Z,38.70
2022-12-03T17:40:05.161Z,41.57
2022-12-03T17:42:32.102Z,41.63
2022-12-03T17:44:58.972Z,40.80
2022-12-03T17:47:25.891Z,37.90
2022-12-03T17:49:53.053Z,39.63
2022-12-03T17:52:20.316Z,33.40
2022-12-03T17:55:10.091Z,32.60
2022-12-03T17:57:34.160Z,31.43
2022-12-03T18:00:01.395Z,31.40
2022-12-03T18:02:28.306Z,37.80
2022-12-03T18:04:55.341Z,34.03
2022-12-03T18:07:22.219Z,31.90
2022-12-03T18:09:49.205Z,30.73
2022-12-03T18:12:16.145Z,33.53
2022-12-03T18:14:43.081Z,31.47
2022-12-03T18:17:09.999Z,31.97
2022-12-03T18:19:36.911Z,31.37
2022-12-03T18:22:03.813Z,32.77
2022-12-03T18:24:30.758Z,31.50
2022-12-03T18:26:57.674Z,31.07
2022-12-03T18:29:24.626Z,30.43
2022-12-03T18:31:51.712Z,31.57
2022-12-03T18:34:18.713Z,31.50
2022-12-03T18:36:46.018Z,32.10
2022-12-03T18:39:24.972Z,29.50
2022-12-03T18:41:53.345Z,27.87
2022-12-03T18:44:20.669Z,30.03
2022-12-03T18:46:55.184Z,30.63
2022-12-03T18:49:22.616Z,29.20
2022-12-03T18:51:53.299Z,35.07
2022-12-03T18:54:25.177Z,31.93
2022-12-03T18:56:52.061Z,31.70
2022-12-03T18:59:18.971Z,29.23
2022-12-03T19:01:45.895Z,30.47
2022-12-03T19:04:12.847Z,31.23
2022-12-03T19:06:39.791Z,30.43
2022-12-03T19:09:06.846Z,27.83
2022-12-03T19:11:34.159Z,31.77
2022-12-03T19:14:02.973Z,31.50
2022-12-03T19:16:30.341Z,32.17
2022-12-03T19:18:57.708Z,31.83
2022-12-03T19:21:26.409Z,31.17
2022-12-03T19:24:22.786Z,30.03
2022-12-03T19:26:43.243Z,29.03
2022-12-03T19:29:10.725Z,31.73
2022-12-03T19:31:37.655Z,32.03
2022-12-03T19:34:04.609Z,31.73
2022-12-03T19:36:32.317Z,31.00
2022-12-03T19:39:00.413Z,29.73
2022-12-03T19:41:30.518Z,34.27
2022-12-03T19:43:58.367Z,30.17
2022-12-03T19:46:31.295Z,30.47
2022-12-03T19:48:58.567Z,29.60
2022-12-03T19:51:34.518Z,28.63
2022-12-03T19:54:04.344Z,29.50
2022-12-03T19:56:31.322Z,28.70
2022-12-03T19:58:58.664Z,31.03
2022-12-03T20:01:29.536Z,30.87
2022-12-03T20:03:59.667Z,32.07
2022-12-03T20:06:30.122Z,35.23
2022-12-03T20:09:00.855Z,31.30
2022-12-03T20:11:31.618Z,30.00
2022-12-03T20:14:01.915Z,33.70
2022-12-03T20:16:30.981Z,37.43
2022-12-03T20:19:04.698Z,32.70
2022-12-03T20:21:34.426Z,28.77
2022-12-03T20:24:01.967Z,27.70
2022-12-03T20:26:29.355Z,31.27
2022-12-03T20:28:57.552Z,35.33
2022-12-03T20:31:28.036Z,33.00
2022-12-03T20:33:58.267Z,27.80
2022-12-03T20:36:26.559Z,30.07
2022-12-03T20:39:00.514Z,29.03
2022-12-03T20:41:28.350Z,26.50
2022-12-03T20:43:55.481Z,29.57
2022-12-03T20:46:29.327Z,25.63
2022-12-03T20:48:56.774Z,28.33
2022-12-03T20:51:28.590Z,28.60
2022-12-03T20:53:57.145Z,25.30
2022-12-03T20:56:34.192Z,26.20
2022-12-03T20:59:05.185Z,24.23
2022-12-03T21:01:32.905Z,27.40
2022-12-03T21:03:59.893Z,27.07
2022-12-03T21:06:30.687Z,25.97
2022-12-03T21:09:00.900Z,27.13
2022-12-03T21:11:30.868Z,27.23
2022-12-03T21:13:59.217Z,28.60
2022-12-03T21:16:59.212Z,25.37
2022-12-03T21:19:18.596Z,24.93
2022-12-03T21:21:45.598Z,24.60
2022-12-03T21:24:13.630Z,27.80
2022-12-03T21:26:41.186Z,31.90
2022-12-03T21:29:08.730Z,34.83
2022-12-03T21:31:37.329Z,31.27
2022-12-03T21:34:05.156Z,31.40
2022-12-03T21:36:32.510Z,30.40
2022-12-03T21:38:59.744Z,33.53
2022-12-03T21:41:26.775Z,30.27
2022-12-03T21:43:53.703Z,28.97
2022-12-03T21:47:10.048Z,30.47
2022-12-03T21:49:07.946Z,30.03
2022-12-03T21:51:34.864Z,29.37
2022-12-03T21:54:01.900Z,30.20
2022-12-03T21:56:31.821Z,29.90
2022-12-03T21:58:58.920Z,29.77
2022-12-03T22:01:25.878Z,29.07
2022-12-03T22:03:53.036Z,29.50
2022-12-03T22:06:20.212Z,30.53
2022-12-03T22:08:47.881Z,28.63
2022-12-03T22:11:24.167Z,30.17
2022-12-03T22:13:51.604Z,30.37
2022-12-03T22:16:20.740Z,34.87
2022-12-03T22:18:48.175Z,29.47
2022-12-03T22:21:18.964Z,30.93
2022-12-03T22:23:46.192Z,28.47
2022-12-03T22:26:17.426Z,28.40
2022-12-03T22:28:47.066Z,29.63
2022-12-03T22:31:16.161Z,25.10
2022-12-03T22:33:43.768Z,22.33
2022-12-03T22:36:19.682Z,23.53
2022-12-03T22:38:47.882Z,28.10
2022-12-03T22:41:15.758Z,27.37
2022-12-03T22:43:43.100Z,23.60
2022-12-03T22:46:12.722Z,25.00
2022-12-03T22:48:41.848Z,24.17
2022-12-03T22:51:25.912Z,22.07
2022-12-03T22:53:58.900Z,22.67
2022-12-03T22:56:27.315Z,22.70
2022-12-03T22:58:54.921Z,23.53
2022-12-03T23:01:33.987Z,23.03
2022-12-03T23:04:02.044Z,20.60
2022-12-03T23:06:30.899Z,21.13
2022-12-03T23:08:59.164Z,22.07
2022-12-03T23:11:27.254Z,21.70
2022-12-03T23:13:54.476Z,22.70
2022-12-03T23:16:30.945Z,22.93
2022-12-03T23:18:59.896Z,19.67
2022-12-03T23:21:30.907Z,18.77
2022-12-03T23:24:03.361Z,21.43
2022-12-03T23:26:30.639Z,19.20
2022-12-03T23:28:57.534Z,19.07
2022-12-03T23:31:33.189Z,21.37
2022-12-03T23:34:01.025Z,20.33
2022-12-03T23:36:30.677Z,20.33
2022-12-03T23:38:57.590Z,21.23
2022-12-03T23:41:25.658Z,19.97
2022-12-03T23:43:52.935Z,18.47
2022-12-03T23:46:24.400Z,22.87
2022-12-03T23:48:51.911Z,18.00
2022-12-03T23:51:24.507Z,19.97
2022-12-03T23:53:53.270Z,22.37
2022-12-03T23:56:24.568Z,22.03
2022-12-03T23:58:51.694Z,19.73
